createdAt,value
2018-12-15T00:00:31.016Z,12.47
2018-12-15T00:03:01.757Z,12.90
2018-12-15T00:05:32.384Z,13.07
2018-12-15T00:08:01.092Z,13.00
2018-12-15T00:10:29.869Z,12.53
2018-12-15T00:12:58.674Z,13.07
2018-12-15T00:15:27.467Z,13.67
2018-12-15T00:17:56.140Z,12.97
2018-12-15T00:20:24.825Z,12.60
2018-12-15T00:22:53.623Z,12.70
2018-12-15T00:25:22.300Z,13.03
2018-12-15T00:27:51.035Z,13.60
2018-12-15T00:30:19.793Z,12.53
2018-12-15T00:32:48.527Z,13.50
2018-12-15T00:35:17.291Z,12.77
2018-12-15T00:37:46.044Z,13.37
2018-12-15T00:40:14.804Z,12.77
2018-12-15T00:42:43.480Z,13.03
2018-12-15T00:45:12.330Z,12.57
2018-12-15T00:47:41.075Z,13.47
2018-12-15T00:50:10.729Z,13.65
2018-12-15T00:52:39.656Z,12.97
2018-12-15T00:55:08.417Z,13.10
2018-12-15T00:57:37.106Z,13.17
2018-12-15T01:00:06.016Z,13.40
2018-12-15T01:02:34.887Z,12.40
2018-12-15T01:05:03.802Z,11.93
2018-12-15T01:07:35.174Z,13.23
2018-12-15T01:10:04.191Z,12.73
2018-12-15T01:12:34.799Z,12.37
2018-12-15T01:15:03.760Z,12.40
2018-12-15T01:17:33.083Z,12.57
2018-12-15T01:20:01.834Z,11.90
2018-12-15T01:22:30.699Z,12.18
2018-12-15T01:24:59.367Z,11.97
2018-12-15T01:27:28.055Z,12.30
2018-12-15T01:29:56.787Z,11.70
2018-12-15T01:32:26.051Z,12.10
2018-12-15T01:34:54.761Z,12.17
2018-12-15T01:37:23.470Z,11.63
2018-12-15T01:39:52.351Z,11.70
2018-12-15T01:42:21.048Z,12.83
2018-12-15T01:44:49.729Z,11.80
2018-12-15T01:47:18.479Z,11.20
2018-12-15T01:49:47.247Z,11.73
2018-12-15T01:52:15.927Z,11.70
2018-12-15T01:54:44.624Z,11.03
2018-12-15T01:57:13.433Z,11.50
2018-12-15T01:59:42.175Z,10.93
2018-12-15T02:02:10.927Z,11.60
2018-12-15T02:04:39.659Z,11.47
2018-12-15T02:07:08.407Z,12.03
2018-12-15T02:09:37.080Z,10.95
2018-12-15T02:12:05.892Z,11.00
2018-12-15T02:14:34.724Z,11.30
2018-12-15T02:17:03.525Z,10.87
2018-12-15T02:19:32.263Z,10.90
2018-12-15T02:22:01.007Z,11.80
2018-12-15T02:24:29.824Z,11.20
2018-12-15T02:26:58.504Z,11.50
2018-12-15T02:29:27.182Z,11.40
2018-12-15T02:31:56.509Z,11.77
2018-12-15T02:34:25.250Z,11.43
2018-12-15T02:36:54.043Z,10.60
2018-12-15T02:39:23.086Z,10.53
2018-12-15T02:41:51.764Z,10.73
2018-12-15T02:44:20.511Z,11.10
2018-12-15T02:46:49.192Z,12.27
2018-12-15T02:49:18.999Z,11.60
2018-12-15T02:51:47.807Z,12.33
2018-12-15T02:54:16.612Z,11.30
2018-12-15T02:56:45.412Z,12.37
2018-12-15T02:59:14.156Z,11.90
2018-12-15T03:01:42.998Z,11.27
2018-12-15T03:04:11.789Z,12.13
2018-12-15T03:06:40.603Z,11.60
2018-12-15T03:09:09.779Z,11.90
2018-12-15T03:11:38.544Z,11.77
2018-12-15T03:14:07.384Z,11.33
2018-12-15T03:16:36.132Z,11.97
2018-12-15T03:19:12.099Z,11.67
2018-12-15T03:21:40.915Z,11.87
2018-12-15T03:24:09.633Z,11.73
2018-12-15T03:26:38.387Z,11.43
2018-12-15T03:29:07.104Z,11.40
2018-12-15T03:31:35.772Z,11.10
2018-12-15T03:34:04.503Z,11.37
2018-12-15T03:36:33.270Z,11.57
2018-12-15T03:39:01.951Z,11.60
2018-12-15T03:41:32.624Z,11.80
2018-12-15T03:44:01.415Z,11.30
2018-12-15T03:46:30.171Z,11.37
2018-12-15T03:48:58.908Z,11.43
2018-12-15T03:51:27.987Z,11.47
2018-12-15T03:53:56.668Z,11.87
2018-12-15T03:56:25.428Z,11.47
2018-12-15T03:58:54.217Z,11.53
2018-12-15T04:01:22.973Z,11.33
2018-12-15T04:03:51.652Z,10.77
2018-12-15T04:06:20.323Z,10.90
2018-12-15T04:08:49.312Z,11.13
2018-12-15T04:11:18.060Z,11.60
2018-12-15T04:13:46.808Z,11.17
2018-12-15T04:16:15.485Z,12.33
2018-12-15T04:18:44.179Z,12.47
2018-12-15T04:21:12.875Z,12.03
2018-12-15T04:23:41.844Z,12.35
2018-12-15T04:26:10.591Z,13.17
2018-12-15T04:28:39.327Z,12.93
2018-12-15T04:31:08.397Z,14.47
2018-12-15T04:33:37.259Z,12.80
2018-12-15T04:36:15.131Z,13.03
2018-12-15T04:38:43.913Z,13.50
2018-12-15T04:41:12.675Z,13.33
2018-12-15T04:43:41.402Z,13.20
2018-12-15T04:46:11.452Z,14.03
2018-12-15T04:48:41.222Z,14.80
2018-12-15T04:51:09.919Z,13.87
2018-12-15T04:53:38.676Z,15.00
2018-12-15T04:56:07.520Z,14.70
2018-12-15T04:58:36.422Z,14.20
2018-12-15T05:01:05.231Z,15.37
2018-12-15T05:03:34.002Z,15.40
2018-12-15T05:06:02.859Z,16.17
2018-12-15T05:08:31.589Z,16.10
2018-12-15T05:11:00.345Z,16.17
2018-12-15T05:13:29.023Z,15.90
2018-12-15T05:15:58.537Z,16.50
2018-12-15T05:18:27.240Z,16.03
2018-12-15T05:20:55.919Z,16.50
2018-12-15T05:23:24.663Z,17.50
2018-12-15T05:25:53.425Z,16.67
2018-12-15T05:28:22.111Z,17.40
2018-12-15T05:30:51.835Z,17.50
2018-12-15T05:33:20.501Z,17.83
2018-12-15T05:35:49.317Z,17.97
2018-12-15T05:38:24.836Z,17.00
2018-12-15T05:40:53.515Z,17.87
2018-12-15T05:43:22.203Z,17.60
2018-12-15T05:45:50.878Z,18.77
2018-12-15T05:48:25.220Z,19.20
2018-12-15T05:50:50.352Z,18.67
2018-12-15T05:53:19.897Z,18.10
2018-12-15T05:55:48.645Z,18.20
2018-12-15T05:58:17.311Z,19.03
2018-12-15T06:00:46.163Z,19.83
2018-12-15T06:03:14.975Z,17.90
2018-12-15T06:05:43.666Z,19.87
2018-12-15T06:08:12.418Z,19.20
2018-12-15T06:10:41.183Z,19.30
2018-12-15T06:13:09.884Z,18.77
2018-12-15T06:15:38.683Z,18.55
2018-12-15T06:18:07.793Z,19.33
2018-12-15T06:20:36.539Z,20.03
2018-12-15T06:23:05.289Z,19.20
2018-12-15T06:25:34.093Z,19.30
2018-12-15T06:28:02.840Z,19.87
2018-12-15T06:30:31.503Z,19.80
2018-12-15T06:33:00.225Z,19.93
2018-12-15T06:35:35.734Z,20.07
2018-12-15T06:38:04.476Z,21.00
2018-12-15T06:40:33.221Z,20.23
2018-12-15T06:43:01.908Z,21.00
2018-12-15T06:45:30.575Z,20.47
2018-12-15T06:47:59.259Z,19.63
2018-12-15T06:50:29.586Z,20.93
2018-12-15T06:52:59.009Z,20.87
2018-12-15T06:55:27.767Z,20.77
2018-12-15T06:57:57.121Z,20.53
2018-12-15T07:00:25.937Z,19.97
2018-12-15T07:02:54.717Z,22.10
2018-12-15T07:05:23.458Z,21.50
2018-12-15T07:07:53.172Z,21.00
2018-12-15T07:10:21.969Z,20.53
2018-12-15T07:12:50.671Z,20.57
2018-12-15T07:15:19.411Z,21.30
2018-12-15T07:17:48.092Z,20.60
2018-12-15T07:20:16.931Z,20.43
2018-12-15T07:22:45.624Z,20.97
2018-12-15T07:25:14.366Z,20.37
2018-12-15T07:27:43.135Z,21.07
2018-12-15T07:30:11.895Z,20.90
2018-12-15T07:32:40.644Z,20.30
2018-12-15T07:35:09.335Z,20.27
2018-12-15T07:37:38.208Z,20.80
2018-12-15T07:40:06.964Z,21.00
2018-12-15T07:42:35.644Z,20.43
2018-12-15T07:45:05.345Z,20.43
2018-12-15T07:47:35.191Z,21.13
2018-12-15T07:50:04.181Z,24.97
2018-12-15T07:52:32.903Z,20.33
2018-12-15T07:55:01.621Z,20.70
2018-12-15T07:57:30.496Z,21.37
2018-12-15T07:59:59.960Z,20.60
2018-12-15T08:02:30.207Z,20.63
2018-12-15T08:05:00.529Z,19.93
2018-12-15T08:07:30.159Z,19.83
2018-12-15T08:10:00.821Z,21.10
2018-12-15T08:12:35.642Z,20.88
2018-12-15T08:15:04.905Z,19.83
2018-12-15T08:17:33.700Z,20.30
2018-12-15T08:20:02.534Z,20.80
2018-12-15T08:22:31.515Z,19.37
2018-12-15T08:25:01.069Z,18.60
2018-12-15T08:27:30.164Z,20.27
2018-12-15T08:29:59.040Z,20.27
2018-12-15T08:32:27.857Z,21.40
2018-12-15T08:34:56.546Z,19.70
2018-12-15T08:37:25.291Z,20.23
2018-12-15T08:39:53.971Z,19.23
2018-12-15T08:42:22.734Z,20.17
2018-12-15T08:44:51.476Z,20.30
2018-12-15T08:47:20.187Z,20.33
2018-12-15T08:49:48.880Z,20.17
2018-12-15T08:52:17.681Z,19.50
2018-12-15T08:54:46.383Z,20.73
2018-12-15T08:57:20.589Z,19.93
2018-12-15T08:59:49.409Z,20.27
2018-12-15T09:02:18.391Z,20.87
2018-12-15T09:04:47.159Z,20.67
2018-12-15T09:07:16.666Z,20.40
2018-12-15T09:09:45.559Z,19.63
2018-12-15T09:12:14.263Z,19.30
2018-12-15T09:14:43.059Z,20.37
2018-12-15T09:17:12.823Z,19.20
2018-12-15T09:19:41.735Z,18.63
2018-12-15T09:22:11.436Z,21.50
2018-12-15T09:24:40.468Z,18.97
2018-12-15T09:27:10.264Z,19.70
2018-12-15T09:29:39.118Z,19.67
2018-12-15T09:32:07.925Z,18.60
2018-12-15T09:34:36.637Z,19.00
2018-12-15T09:37:05.371Z,19.30
2018-12-15T09:39:34.085Z,19.83
2018-12-15T09:42:02.802Z,18.40
2018-12-15T09:44:31.580Z,18.87
2018-12-15T09:47:00.655Z,18.40
2018-12-15T09:49:37.168Z,19.43
2018-12-15T09:52:05.939Z,20.50
2018-12-15T09:54:34.740Z,19.03
2018-12-15T09:57:03.535Z,19.37
2018-12-15T09:59:32.396Z,19.63
2018-12-15T10:02:01.143Z,19.90
2018-12-15T10:04:30.837Z,18.83
2018-12-15T10:06:59.557Z,18.73
2018-12-15T10:09:28.544Z,19.27
2018-12-15T10:11:57.286Z,18.47
2018-12-15T10:14:26.055Z,18.53
2018-12-15T10:16:54.827Z,19.13
2018-12-15T10:19:24.421Z,17.47
2018-12-15T10:21:53.520Z,17.50
2018-12-15T10:24:22.375Z,17.87
2018-12-15T10:26:51.080Z,16.83
2018-12-15T10:29:25.317Z,17.93
2018-12-15T10:31:59.553Z,19.82
2018-12-15T10:34:28.372Z,16.63
2018-12-15T10:36:57.252Z,17.13
2018-12-15T10:39:26.005Z,16.43
2018-12-15T10:41:54.849Z,18.10
2018-12-15T10:44:23.559Z,16.10
2018-12-15T10:46:52.390Z,17.40
2018-12-15T10:49:23.071Z,16.60
2018-12-15T10:51:52.964Z,15.90
2018-12-15T10:54:21.737Z,16.17
2018-12-15T10:56:50.615Z,15.53
2018-12-15T10:59:19.480Z,16.00
2018-12-15T11:01:49.849Z,15.97
2018-12-15T11:04:18.829Z,16.23
2018-12-15T11:06:47.768Z,16.30
2018-12-15T11:09:16.536Z,15.90
2018-12-15T11:11:46.880Z,16.87
2018-12-15T11:14:16.122Z,14.63
2018-12-15T11:16:45.089Z,16.07
2018-12-15T11:19:14.158Z,14.80
2018-12-15T11:21:42.952Z,15.03
2018-12-15T11:24:11.661Z,15.53
2018-12-15T11:26:40.435Z,14.03
2018-12-15T11:29:09.190Z,14.53
2018-12-15T11:31:38.025Z,14.87
2018-12-15T11:34:06.831Z,14.97
2018-12-15T11:36:35.605Z,14.33
2018-12-15T11:39:06.695Z,15.00
2018-12-15T11:41:37.415Z,13.90
2018-12-15T11:44:06.241Z,13.93
2018-12-15T11:46:34.996Z,14.20
2018-12-15T11:49:03.844Z,14.43
2018-12-15T11:51:32.600Z,14.13
2018-12-15T11:54:01.891Z,13.80
2018-12-15T11:56:31.883Z,14.13
2018-12-15T11:59:02.451Z,13.93
2018-12-15T12:01:32.697Z,14.73
2018-12-15T12:04:01.936Z,13.43
2018-12-15T12:06:30.732Z,13.23
2018-12-15T12:08:59.550Z,13.10
2018-12-15T12:11:28.329Z,13.70
2018-12-15T12:14:00.312Z,13.07
2018-12-15T12:16:27.850Z,13.37
2018-12-15T12:18:56.593Z,13.20
2018-12-15T12:21:25.356Z,13.97
2018-12-15T12:23:54.063Z,13.33
2018-12-15T12:26:24.731Z,13.67
2018-12-15T12:28:53.736Z,13.33
2018-12-15T12:31:22.561Z,13.57
2018-12-15T12:33:51.271Z,13.03
2018-12-15T12:36:21.260Z,12.70
2018-12-15T12:41:26.060Z,13.20
2018-12-15T12:43:54.860Z,12.60
2018-12-15T12:46:23.727Z,13.33
2018-12-15T12:48:52.593Z,12.80
2018-12-15T12:51:21.393Z,13.90
2018-12-15T12:53:50.159Z,11.77
2018-12-15T12:56:18.841Z,10.77
2018-12-15T12:58:47.539Z,10.17
2018-12-15T13:01:16.395Z,10.00
2018-12-15T13:03:45.164Z,10.70
2018-12-15T13:06:13.845Z,11.03
2018-12-15T13:08:42.560Z,10.90
2018-12-15T13:11:11.311Z,9.33
2018-12-15T13:13:40.047Z,8.53
2018-12-15T13:16:08.712Z,9.00
2018-12-15T13:18:37.525Z,9.07
2018-12-15T13:21:07.359Z,8.90
2018-12-15T13:23:36.324Z,9.27
2018-12-15T13:26:05.135Z,9.07
2018-12-15T13:28:34.552Z,7.30
2018-12-15T13:31:04.320Z,7.97
2018-12-15T13:33:34.973Z,8.33
2018-12-15T13:36:11.243Z,7.90
2018-12-15T13:38:40.031Z,8.23
2018-12-15T13:41:08.841Z,8.57
2018-12-15T13:43:37.731Z,9.97
2018-12-15T13:46:06.544Z,8.83
2018-12-15T13:48:35.652Z,9.40
2018-12-15T13:51:04.502Z,9.47
2018-12-15T13:53:34.247Z,9.00
2018-12-15T13:56:02.996Z,8.95
2018-12-15T13:58:31.675Z,9.27
2018-12-15T14:01:00.519Z,9.40
2018-12-15T14:03:29.292Z,8.67
2018-12-15T14:05:58.120Z,8.07
2018-12-15T14:08:26.795Z,7.73
2018-12-15T14:10:55.605Z,8.67
2018-12-15T14:13:24.343Z,8.70
2018-12-15T14:15:53.125Z,8.43
2018-12-15T14:18:21.838Z,8.63
2018-12-15T14:20:50.728Z,8.40
2018-12-15T14:23:19.476Z,8.20
2018-12-15T14:25:48.191Z,8.23
2018-12-15T14:28:17.002Z,7.93
2018-12-15T14:30:45.815Z,8.30
2018-12-15T14:33:14.583Z,8.60
2018-12-15T14:35:43.291Z,8.57
2018-12-15T14:38:12.117Z,8.50
2018-12-15T14:40:40.891Z,8.33
2018-12-15T14:43:09.585Z,8.53
2018-12-15T14:45:39.555Z,8.50
2018-12-15T14:48:08.369Z,8.60
2018-12-15T14:50:37.184Z,8.07
2018-12-15T14:53:05.926Z,7.83
2018-12-15T14:55:34.703Z,7.80
2018-12-15T14:58:03.454Z,8.23
2018-12-15T15:00:32.225Z,8.23
2018-12-15T15:03:01.072Z,8.53
2018-12-15T15:05:29.852Z,8.83
2018-12-15T15:07:58.627Z,8.60
2018-12-15T15:10:27.497Z,8.97
2018-12-15T15:12:56.158Z,9.20
2018-12-15T15:15:24.843Z,8.67
2018-12-15T15:17:53.511Z,8.63
2018-12-15T15:20:22.191Z,9.53
2018-12-15T15:22:50.867Z,8.47
2018-12-15T15:25:19.566Z,9.33
2018-12-15T15:27:48.271Z,8.50
2018-12-15T15:30:17.063Z,9.27
2018-12-15T15:32:45.972Z,8.97
2018-12-15T15:35:14.767Z,8.67
2018-12-15T15:37:43.675Z,9.00
2018-12-15T15:40:12.506Z,10.00
2018-12-15T15:42:41.593Z,9.10
2018-12-15T15:45:10.449Z,9.23
2018-12-15T15:47:39.289Z,10.37
2018-12-15T15:50:08.999Z,10.43
2018-12-15T15:52:37.741Z,10.80
2018-12-15T15:55:07.295Z,10.97
2018-12-15T15:57:36.752Z,11.00
2018-12-15T16:00:07.147Z,10.53
2018-12-15T16:02:35.919Z,11.40
2018-12-15T16:05:05.052Z,10.57
2018-12-15T16:07:33.881Z,10.67
2018-12-15T16:10:02.712Z,11.37
2018-12-15T16:12:31.426Z,10.43
2018-12-15T16:15:00.175Z,11.23
2018-12-15T16:17:28.857Z,11.67
2018-12-15T16:19:57.599Z,11.50
2018-12-15T16:22:26.353Z,11.63
2018-12-15T16:24:55.125Z,11.17
2018-12-15T16:27:23.863Z,12.73
2018-12-15T16:29:52.611Z,12.13
2018-12-15T16:32:21.428Z,12.53
2018-12-15T16:34:50.306Z,12.33
2018-12-15T16:37:19.150Z,13.27
2018-12-15T16:39:47.835Z,13.03
2018-12-15T16:42:16.645Z,13.70
2018-12-15T16:44:45.475Z,14.10
2018-12-15T16:47:14.343Z,15.00
2018-12-15T16:49:43.133Z,14.33
2018-12-15T16:52:12.208Z,14.30
2018-12-15T16:54:41.230Z,13.73
2018-12-15T16:57:10.030Z,13.37
2018-12-15T16:59:38.722Z,12.90
2018-12-15T17:02:07.476Z,13.90
2018-12-15T17:04:36.279Z,14.43
2018-12-15T17:07:05.221Z,13.90
2018-12-15T17:09:34.853Z,13.33
2018-12-15T17:12:03.714Z,13.87
2018-12-15T17:14:32.533Z,14.03
2018-12-15T17:17:01.273Z,13.40
2018-12-15T17:19:30.152Z,14.30
2018-12-15T17:21:58.967Z,14.50
2018-12-15T17:24:27.764Z,13.93
2018-12-15T17:26:56.584Z,14.13
2018-12-15T17:29:25.353Z,13.47
2018-12-15T17:31:54.305Z,13.63
2018-12-15T17:34:23.212Z,13.77
2018-12-15T17:36:52.587Z,13.73
2018-12-15T17:39:22.503Z,13.53
2018-12-15T17:41:51.220Z,14.80
2018-12-15T17:44:20.192Z,13.77
2018-12-15T17:46:49.311Z,13.93
2018-12-15T17:49:20.100Z,14.13
2018-12-15T17:51:48.811Z,13.27
2018-12-15T17:54:17.566Z,13.67
2018-12-15T17:56:46.276Z,13.33
2018-12-15T17:59:15.042Z,13.80
2018-12-15T18:01:43.934Z,13.47
2018-12-15T18:04:12.617Z,14.10
2018-12-15T18:06:41.299Z,14.80
2018-12-15T18:09:10.016Z,13.88
2018-12-15T18:11:41.101Z,14.77
2018-12-15T18:14:09.863Z,14.40
2018-12-15T18:16:38.637Z,13.57
2018-12-15T18:19:08.759Z,14.97
2018-12-15T18:21:38.427Z,13.30
2018-12-15T18:24:07.391Z,12.50
2018-12-15T18:26:36.249Z,13.20
2018-12-15T18:29:06.122Z,12.93
2018-12-15T18:31:36.051Z,13.33
2018-12-15T18:34:05.814Z,13.50
2018-12-15T18:36:34.529Z,12.20
2018-12-15T18:39:04.983Z,13.63
2018-12-15T18:41:36.279Z,14.47
2018-12-15T18:44:06.074Z,13.27
2018-12-15T18:46:34.838Z,12.67
2018-12-15T18:49:03.551Z,12.03
2018-12-15T18:51:32.624Z,11.43
2018-12-15T18:54:01.544Z,10.90
2018-12-15T18:56:30.887Z,12.23
2018-12-15T18:59:00.118Z,12.23
2018-12-15T19:01:29.017Z,11.57
2018-12-15T19:03:57.771Z,11.90
2018-12-15T19:06:26.814Z,11.30
2018-12-15T19:08:55.645Z,10.43
2018-12-15T19:11:24.323Z,11.47
2018-12-15T19:13:53.087Z,11.33
2018-12-15T19:16:22.960Z,11.80
2018-12-15T19:18:51.669Z,10.87
2018-12-15T19:21:23.019Z,10.53
2018-12-15T19:23:51.103Z,10.93
2018-12-15T19:26:19.813Z,11.10
2018-12-15T19:28:48.643Z,10.40
2018-12-15T19:31:17.424Z,10.97
2018-12-15T19:33:46.119Z,9.93
2018-12-15T19:36:14.896Z,11.30
2018-12-15T19:38:43.663Z,11.10
2018-12-15T19:41:13.365Z,11.03
2018-12-15T19:43:42.139Z,10.63
2018-12-15T19:46:10.984Z,10.80
2018-12-15T19:48:39.851Z,10.67
2018-12-15T19:51:08.633Z,9.93
2018-12-15T19:53:37.339Z,9.83
2018-12-15T19:56:06.744Z,10.30
2018-12-15T19:58:36.372Z,10.63
2018-12-15T20:01:05.107Z,10.07
2018-12-15T20:03:34.899Z,10.07
2018-12-15T20:06:03.739Z,10.53
2018-12-15T20:08:32.924Z,9.87
2018-12-15T20:11:01.601Z,9.83
2018-12-15T20:13:31.381Z,9.43
2018-12-15T20:16:00.710Z,10.03
2018-12-15T20:18:29.416Z,9.37
2018-12-15T20:20:59.285Z,9.43
2018-12-15T20:23:28.987Z,10.43
2018-12-15T20:25:57.683Z,9.27
2018-12-15T20:28:26.395Z,8.90
2018-12-15T20:30:55.060Z,9.00
2018-12-15T20:33:23.848Z,10.10
2018-12-15T20:35:52.603Z,10.20
2018-12-15T20:38:21.321Z,10.20
2018-12-15T20:40:50.056Z,10.67
2018-12-15T20:43:18.736Z,10.13
2018-12-15T20:45:47.411Z,10.13
2018-12-15T20:48:16.221Z,10.33
2018-12-15T20:50:45.031Z,10.20
2018-12-15T20:53:13.819Z,9.57
2018-12-15T20:55:42.636Z,9.63
2018-12-15T20:58:11.343Z,10.47
2018-12-15T21:00:40.077Z,10.80
2018-12-15T21:03:08.796Z,10.83
2018-12-15T21:05:37.600Z,10.67
2018-12-15T21:08:07.067Z,8.67
2018-12-15T21:10:35.736Z,10.83
2018-12-15T21:13:04.543Z,10.30
2018-12-15T21:15:37.121Z,11.23
2018-12-15T21:18:05.888Z,11.10
2018-12-15T21:20:34.725Z,9.80
2018-12-15T21:23:03.571Z,11.00
2018-12-15T21:25:32.288Z,12.20
2018-12-15T21:28:01.285Z,10.33
2018-12-15T21:30:30.059Z,10.63
2018-12-15T21:32:58.867Z,10.70
2018-12-15T21:35:27.751Z,9.63
2018-12-15T21:37:56.441Z,10.30
2018-12-15T21:40:25.181Z,9.87
2018-12-15T21:42:53.867Z,10.73
2018-12-15T21:45:22.708Z,10.20
2018-12-15T21:47:57.429Z,11.77
2018-12-15T21:50:22.556Z,11.57
2018-12-15T21:52:51.745Z,11.03
2018-12-15T21:55:20.638Z,11.03
2018-12-15T21:57:49.351Z,10.37
2018-12-15T22:00:18.088Z,11.50
2018-12-15T22:02:46.820Z,11.03
2018-12-15T22:05:15.531Z,11.23
2018-12-15T22:07:44.324Z,11.07
2018-12-15T22:10:13.087Z,10.73
2018-12-15T22:12:41.801Z,11.40
2018-12-15T22:15:10.559Z,10.60
2018-12-15T22:17:39.378Z,10.83
2018-12-15T22:20:09.837Z,11.30
2018-12-15T22:22:39.373Z,11.90
2018-12-15T22:25:08.821Z,11.73
2018-12-15T22:27:38.529Z,12.30
2018-12-15T22:30:08.869Z,12.27
2018-12-15T22:32:37.695Z,12.10
2018-12-15T22:35:07.436Z,13.07
2018-12-15T22:37:36.187Z,14.03
2018-12-15T22:40:05.320Z,12.77
2018-12-15T22:42:34.022Z,15.27
2018-12-15T22:45:02.771Z,13.23
2018-12-15T22:47:31.725Z,13.37
2018-12-15T22:50:00.490Z,14.73
2018-12-15T22:52:29.223Z,13.60
2018-12-15T22:54:57.907Z,13.60
2018-12-15T22:57:26.720Z,13.33
2018-12-15T22:59:55.405Z,13.53
2018-12-15T23:02:24.208Z,14.27
2018-12-15T23:04:52.903Z,14.17
2018-12-15T23:07:21.716Z,13.10
2018-12-15T23:09:50.459Z,14.93
2018-12-15T23:12:19.215Z,14.60
2018-12-15T23:14:47.968Z,15.10
2018-12-15T23:17:16.712Z,15.13
2018-12-15T23:19:45.531Z,12.93
2018-12-15T23:22:16.415Z,13.10
2018-12-15T23:24:44.920Z,15.27
2018-12-15T23:27:14.059Z,16.63
2018-12-15T23:29:42.734Z,14.83
2018-12-15T23:32:11.467Z,15.83
2018-12-15T23:34:40.155Z,15.40
2018-12-15T23:37:08.827Z,15.08
2018-12-15T23:39:37.909Z,14.80
2018-12-15T23:42:06.678Z,15.70
2018-12-15T23:44:35.550Z,16.87
2018-12-15T23:47:04.293Z,16.73
2018-12-15T23:49:33.064Z,16.70
2018-12-15T23:52:01.794Z,15.47
2018-12-15T23:54:30.538Z,16.33
2018-12-15T23:56:59.263Z,16.27
2018-12-15T23:59:28.025Z,17.23
